createdAt,value
2023-02-08T00:01:26.567Z,1.10
2023-02-08T00:03:53.935Z,1.20
2023-02-08T00:06:21.619Z,1.20
2023-02-08T00:08:48.882Z,1.20
2023-02-08T00:11:16.102Z,1.30
2023-02-08T00:13:43.398Z,1.30
2023-02-08T00:16:12.645Z,1.40
2023-02-08T00:18:40.202Z,1.40
2023-02-08T00:21:13.332Z,1.50
2023-02-08T00:23:40.924Z,1.50
2023-02-08T00:26:08.755Z,1.60
2023-02-08T00:28:36.598Z,1.60
2023-02-08T00:31:04.508Z,1.60
2023-02-08T00:33:31.846Z,1.70
2023-02-08T00:36:04.770Z,1.70
2023-02-08T00:38:32.508Z,1.80
2023-02-08T00:40:59.757Z,1.80
2023-02-08T00:43:27.008Z,1.80
2023-02-08T00:45:56.458Z,1.90
2023-02-08T00:48:24.945Z,1.90
2023-02-08T00:51:21.917Z,1.90
2023-02-08T00:53:49.024Z,1.90
2023-02-08T00:56:17.248Z,1.90
2023-02-08T00:58:44.810Z,1.90
2023-02-08T01:01:13.022Z,2.00
2023-02-08T01:03:42.822Z,2.00
2023-02-08T01:06:16.670Z,2.00
2023-02-08T01:08:44.360Z,2.00
2023-02-08T01:11:16.302Z,2.00
2023-02-08T01:13:43.726Z,2.00
2023-02-08T01:16:15.967Z,2.00
2023-02-08T01:18:46.440Z,2.00
2023-02-08T01:21:17.665Z,2.00
2023-02-08T01:23:46.018Z,2.00
2023-02-08T01:26:16.101Z,2.00
2023-02-08T01:28:44.260Z,2.00
2023-02-08T01:31:25.379Z,2.00
2023-02-08T01:33:52.827Z,2.00
2023-02-08T01:36:20.328Z,2.00
2023-02-08T01:38:48.464Z,2.00
2023-02-08T01:41:30.686Z,2.00
2023-02-08T01:44:13.644Z,2.00
2023-02-08T01:46:47.542Z,2.00
2023-02-08T01:49:23.575Z,2.00
2023-02-08T01:51:59.524Z,2.00
2023-02-08T01:54:32.578Z,2.00
2023-02-08T01:56:59.832Z,1.90
2023-02-08T01:59:42.744Z,1.90
2023-02-08T02:02:16.545Z,1.90
2023-02-08T02:04:44.605Z,1.80
2023-02-08T02:07:13.694Z,1.80
2023-02-08T02:10:09.078Z,1.70
2023-02-08T02:12:39.156Z,1.70
2023-02-08T02:15:08.445Z,1.60
2023-02-08T02:17:38.475Z,1.60
2023-02-08T02:20:20.791Z,1.60
2023-02-08T02:23:00.200Z,1.60
2023-02-08T02:25:57.100Z,1.50
2023-02-08T02:28:35.931Z,1.50
2023-02-08T02:31:59.947Z,1.50
2023-02-08T02:34:45.848Z,1.40
2023-02-08T02:37:59.823Z,1.30
2023-02-08T02:41:00.791Z,1.30
2023-02-08T02:43:54.912Z,1.20
2023-02-08T02:46:43.295Z,1.20
2023-02-08T02:49:38.920Z,1.10
2023-02-08T02:52:12.931Z,1.10
2023-02-08T02:54:52.230Z,1.10
2023-02-08T02:57:28.368Z,1.00
2023-02-08T02:59:55.768Z,1.00
2023-02-08T03:02:23.617Z,1.00
2023-02-08T03:04:57.331Z,0.90
2023-02-08T03:07:55.019Z,0.90
2023-02-08T03:10:41.792Z,0.90
2023-02-08T03:13:58.335Z,0.80
2023-02-08T03:17:01.034Z,0.80
2023-02-08T03:19:34.113Z,0.70
2023-02-08T03:22:36.191Z,0.60
2023-02-08T03:25:28.715Z,0.60
2023-02-08T03:28:46.162Z,0.50
2023-02-08T03:31:16.035Z,0.40
2023-02-08T03:33:54.281Z,0.30
2023-02-08T03:36:33.133Z,0.30
2023-02-08T03:39:07.757Z,0.20
2023-02-08T03:41:40.508Z,0.10
2023-02-08T03:44:25.313Z,0.10
2023-02-08T03:47:00.240Z,0.10
2023-02-08T03:49:35.480Z,0.00
2023-02-08T03:52:08.878Z,-0.10
2023-02-08T03:54:47.269Z,-0.10
2023-02-08T03:57:24.052Z,-0.10
2023-02-08T04:00:16.388Z,-0.20
2023-02-08T04:03:16.217Z,-0.20
2023-02-08T04:05:44.045Z,-0.30
2023-02-08T04:08:11.298Z,-0.30
2023-02-08T04:10:38.959Z,-0.30
2023-02-08T04:13:06.275Z,-0.40
2023-02-08T04:15:33.766Z,-0.40
2023-02-08T04:18:01.080Z,-0.40
2023-02-08T04:20:28.308Z,-0.40
2023-02-08T04:22:55.475Z,-0.50
2023-02-08T04:25:23.464Z,-0.50
2023-02-08T04:27:50.764Z,-0.50
2023-02-08T04:30:18.056Z,-0.50
2023-02-08T04:32:45.468Z,-0.50
2023-02-08T04:35:12.686Z,-0.60
2023-02-08T04:37:39.953Z,-0.60
2023-02-08T04:40:07.619Z,-0.50
2023-02-08T04:42:35.343Z,-0.50
2023-02-08T04:45:02.503Z,-0.60
2023-02-08T04:47:29.661Z,-0.60
2023-02-08T04:49:56.865Z,-0.60
2023-02-08T04:52:24.138Z,-0.60
2023-02-08T04:54:51.760Z,-0.60
2023-02-08T04:57:19.047Z,-0.50
2023-02-08T04:59:46.243Z,-0.60
2023-02-08T05:02:13.384Z,-0.60
2023-02-08T05:04:40.708Z,-0.60
2023-02-08T05:07:07.972Z,-0.60
2023-02-08T05:09:35.183Z,-0.60
2023-02-08T05:12:02.367Z,-0.60
2023-02-08T05:14:29.646Z,-0.60
2023-02-08T05:16:56.856Z,-0.60
2023-02-08T05:19:24.203Z,-0.70
2023-02-08T05:21:51.520Z,-0.60
2023-02-08T05:24:18.833Z,-0.60
2023-02-08T05:26:46.013Z,-0.60
2023-02-08T05:29:13.289Z,-0.60
2023-02-08T05:31:40.697Z,-0.60
2023-02-08T05:34:07.953Z,-0.60
2023-02-08T05:36:35.205Z,-0.50
2023-02-08T05:39:02.337Z,-0.50
2023-02-08T05:41:29.674Z,-0.40
2023-02-08T05:43:56.940Z,-0.40
2023-02-08T05:46:24.254Z,-0.40
2023-02-08T05:48:51.609Z,-0.40
2023-02-08T05:51:18.954Z,-0.40
2023-02-08T05:53:46.222Z,-0.40
2023-02-08T05:56:13.632Z,-0.30
2023-02-08T05:58:40.920Z,-0.30
2023-02-08T06:01:13.551Z,-0.30
2023-02-08T06:03:41.579Z,-0.20
2023-02-08T06:06:11.356Z,-0.20
2023-02-08T06:08:39.628Z,-0.20
2023-02-08T06:11:07.625Z,-0.10
2023-02-08T06:13:35.105Z,-0.10
2023-02-08T06:16:02.870Z,-0.10
2023-02-08T06:18:30.142Z,-0.10
2023-02-08T06:20:57.520Z,-0.10
2023-02-08T06:23:25.080Z,-0.10
2023-02-08T06:25:52.858Z,0.00
2023-02-08T06:28:20.174Z,0.10
2023-02-08T06:30:52.840Z,0.10
2023-02-08T06:33:20.446Z,0.10
2023-02-08T06:35:51.779Z,0.20
2023-02-08T06:38:19.907Z,0.20
2023-02-08T06:40:48.512Z,0.20
2023-02-08T06:43:16.965Z,0.30
2023-02-08T06:45:48.170Z,0.30
2023-02-08T06:48:15.871Z,0.30
2023-02-08T06:50:43.636Z,0.30
2023-02-08T06:53:11.123Z,0.30
2023-02-08T06:55:38.928Z,0.30
2023-02-08T06:58:06.199Z,0.30
2023-02-08T07:00:33.486Z,0.30
2023-02-08T07:03:01.203Z,0.30
2023-02-08T07:05:28.622Z,0.30
2023-02-08T07:07:56.764Z,0.30
2023-02-08T07:10:23.971Z,0.30
2023-02-08T07:12:51.066Z,0.30
2023-02-08T07:15:18.410Z,0.30
2023-02-08T07:17:45.615Z,0.40
2023-02-08T07:20:13.440Z,0.40
2023-02-08T07:22:41.762Z,0.40
2023-02-08T07:25:10.220Z,0.50
2023-02-08T07:27:37.592Z,0.50
2023-02-08T07:30:05.971Z,0.60
2023-02-08T07:32:34.797Z,0.60
2023-02-08T07:35:02.445Z,0.70
2023-02-08T07:37:51.270Z,0.80
2023-02-08T07:40:18.659Z,0.80
2023-02-08T07:42:46.013Z,0.90
2023-02-08T07:45:13.231Z,1.00
2023-02-08T07:47:40.441Z,1.00
2023-02-08T07:50:07.967Z,1.10
2023-02-08T07:52:35.191Z,1.10
2023-02-08T07:55:02.329Z,1.20
2023-02-08T07:57:29.742Z,1.30
2023-02-08T07:59:56.876Z,1.40
2023-02-08T08:02:24.290Z,1.40
2023-02-08T08:04:54.191Z,1.50
2023-02-08T08:07:21.466Z,1.50
2023-02-08T08:09:48.586Z,1.60
2023-02-08T08:12:15.669Z,1.70
2023-02-08T08:14:42.840Z,1.70
2023-02-08T08:17:10.139Z,1.80
2023-02-08T08:19:37.558Z,1.80
2023-02-08T08:22:05.197Z,1.90
2023-02-08T08:24:35.703Z,1.90
2023-02-08T08:27:05.355Z,2.00
2023-02-08T08:29:35.224Z,2.00
2023-02-08T08:32:03.400Z,2.10
2023-02-08T08:34:31.661Z,2.20
2023-02-08T08:37:01.332Z,2.20
2023-02-08T08:39:29.072Z,2.30
2023-02-08T08:42:00.728Z,2.30
2023-02-08T08:44:27.902Z,2.40
2023-02-08T08:46:56.962Z,2.50
2023-02-08T08:49:26.122Z,2.50
2023-02-08T08:51:54.091Z,2.50
2023-02-08T08:54:22.109Z,2.60
2023-02-08T08:56:49.392Z,2.70
2023-02-08T08:59:16.813Z,2.70
2023-02-08T09:01:44.260Z,2.80
2023-02-08T09:04:11.900Z,2.90
2023-02-08T09:06:39.394Z,3.00
2023-02-08T09:09:07.905Z,3.00
2023-02-08T09:11:35.136Z,3.10
2023-02-08T09:14:08.148Z,3.20
2023-02-08T09:16:35.493Z,3.20
2023-02-08T09:19:07.697Z,3.30
2023-02-08T09:21:36.876Z,3.40
2023-02-08T09:24:05.010Z,3.50
2023-02-08T09:26:32.737Z,3.50
2023-02-08T09:29:01.140Z,3.60
2023-02-08T09:31:32.488Z,3.70
2023-02-08T09:34:01.686Z,3.80
2023-02-08T09:36:41.560Z,3.90
2023-02-08T09:39:22.479Z,4.00
2023-02-08T09:42:21.082Z,4.00
2023-02-08T09:45:21.900Z,4.10
2023-02-08T09:48:21.893Z,4.20
2023-02-08T09:51:07.632Z,4.30
2023-02-08T09:53:53.438Z,4.40
2023-02-08T09:56:30.504Z,4.50
2023-02-08T09:59:00.861Z,4.60
2023-02-08T10:01:36.077Z,4.60
2023-02-08T10:04:06.242Z,4.70
2023-02-08T10:06:33.737Z,4.80
2023-02-08T10:09:06.889Z,4.80
2023-02-08T10:12:34.545Z,5.00
2023-02-08T10:15:33.791Z,5.10
2023-02-08T10:18:19.903Z,5.20
2023-02-08T10:20:55.094Z,5.30
2023-02-08T10:23:50.341Z,5.40
2023-02-08T10:26:40.824Z,5.50
2023-02-08T10:29:48.392Z,5.50
2023-02-08T10:32:53.339Z,5.70
2023-02-08T10:35:37.586Z,5.80
2023-02-08T10:38:20.333Z,5.90
2023-02-08T10:41:04.715Z,6.20
2023-02-08T10:43:43.994Z,6.50
2023-02-08T10:46:32.091Z,6.80
2023-02-08T10:49:27.691Z,7.20
2023-02-08T10:51:54.812Z,7.60
2023-02-08T10:54:22.074Z,8.10
2023-02-08T10:57:01.104Z,8.40
2023-02-08T10:59:39.973Z,8.80
2023-02-08T11:02:28.443Z,9.20
2023-02-08T11:05:37.450Z,9.60
2023-02-08T11:08:11.749Z,10.00
2023-02-08T11:10:40.743Z,10.30
2023-02-08T11:13:13.723Z,10.60
2023-02-08T11:15:47.189Z,10.90
2023-02-08T11:18:32.438Z,11.20
2023-02-08T11:21:22.682Z,11.40
2023-02-08T11:23:56.549Z,11.70
2023-02-08T11:26:40.095Z,11.90
2023-02-08T11:29:17.361Z,12.10
2023-02-08T11:32:00.453Z,12.30
2023-02-08T11:34:39.446Z,12.40
2023-02-08T11:37:25.998Z,12.60
2023-02-08T11:40:00.641Z,12.70
2023-02-08T11:42:36.894Z,12.80
2023-02-08T11:45:06.248Z,13.00
2023-02-08T11:47:37.889Z,13.20
2023-02-08T11:50:08.969Z,13.40
2023-02-08T11:52:44.040Z,13.50
2023-02-08T11:55:17.334Z,13.60
2023-02-08T11:58:04.624Z,13.70
2023-02-08T12:00:36.416Z,13.90
2023-02-08T12:03:22.900Z,13.90
2023-02-08T12:06:17.892Z,14.00
2023-02-08T12:09:26.545Z,14.10
2023-02-08T12:12:20.708Z,14.10
2023-02-08T12:15:27.206Z,14.20
2023-02-08T12:18:43.246Z,14.40
2023-02-08T12:21:17.331Z,14.40
2023-02-08T12:23:57.847Z,14.60
2023-02-08T12:27:01.713Z,14.60
2023-02-08T12:30:15.203Z,14.50
2023-02-08T12:33:50.457Z,14.50
2023-02-08T12:36:43.676Z,14.50
2023-02-08T12:40:01.008Z,14.40
2023-02-08T12:43:04.250Z,14.40
2023-02-08T12:46:20.223Z,14.30
2023-02-08T12:49:01.169Z,14.40
2023-02-08T12:52:02.375Z,14.40
2023-02-08T12:54:55.761Z,14.40
2023-02-08T12:57:30.199Z,14.40
2023-02-08T13:00:17.076Z,14.40
2023-02-08T13:03:16.163Z,14.40
2023-02-08T13:06:01.826Z,14.40
2023-02-08T13:09:16.407Z,14.40
2023-02-08T13:11:59.409Z,14.40
2023-02-08T13:14:37.398Z,14.40
2023-02-08T13:17:31.763Z,14.30
2023-02-08T13:20:41.091Z,14.30
2023-02-08T13:23:32.289Z,14.30
2023-02-08T13:26:31.626Z,14.30
2023-02-08T13:29:02.478Z,14.40
2023-02-08T13:31:42.075Z,14.50
2023-02-08T13:34:30.408Z,14.60
2023-02-08T13:37:16.632Z,14.60
2023-02-08T13:39:49.480Z,14.70
2023-02-08T13:42:37.055Z,14.80
2023-02-08T13:45:10.834Z,14.90
2023-02-08T13:47:50.148Z,15.10
2023-02-08T13:50:46.157Z,15.30
2023-02-08T13:53:15.642Z,15.40
2023-02-08T13:55:59.666Z,15.60
2023-02-08T13:59:00.831Z,15.70
2023-02-08T14:01:35.799Z,15.80
2023-02-08T14:04:10.049Z,15.90
2023-02-08T14:07:07.012Z,15.90
2023-02-08T14:10:07.610Z,15.90
2023-02-08T14:13:24.275Z,15.90
2023-02-08T14:16:29.445Z,15.90
2023-02-08T14:19:23.441Z,15.80
2023-02-08T14:22:12.147Z,15.80
2023-02-08T14:24:47.755Z,15.90
2023-02-08T14:27:51.413Z,15.90
2023-02-08T14:30:18.586Z,16.00
2023-02-08T14:32:54.506Z,16.00
2023-02-08T14:35:26.325Z,16.10
2023-02-08T14:38:19.586Z,16.00
2023-02-08T14:41:02.212Z,15.90
2023-02-08T14:43:38.990Z,15.90
2023-02-08T14:46:40.470Z,15.80
2023-02-08T14:49:13.889Z,15.80
2023-02-08T14:51:55.460Z,15.80
2023-02-08T14:54:55.422Z,15.80
2023-02-08T14:57:37.458Z,15.80
2023-02-08T15:00:21.302Z,15.80
2023-02-08T15:02:49.591Z,15.70
2023-02-08T15:05:30.716Z,15.70
2023-02-08T15:08:00.914Z,15.70
2023-02-08T15:10:31.870Z,15.60
2023-02-08T15:13:06.638Z,15.60
2023-02-08T15:15:39.661Z,15.40
2023-02-08T15:18:20.192Z,15.30
2023-02-08T15:21:05.478Z,15.10
2023-02-08T15:23:33.030Z,14.90
2023-02-08T15:26:19.392Z,14.60
2023-02-08T15:28:46.965Z,14.40
2023-02-08T15:31:28.277Z,14.20
2023-02-08T15:33:56.128Z,13.90
2023-02-08T15:36:34.130Z,13.80
2023-02-08T15:39:25.261Z,13.50
2023-02-08T15:41:52.474Z,13.20
2023-02-08T15:44:44.542Z,12.90
2023-02-08T15:47:30.354Z,12.60
2023-02-08T15:49:58.844Z,12.30
2023-02-08T15:52:31.614Z,12.10
2023-02-08T15:54:59.520Z,11.80
2023-02-08T15:57:44.461Z,11.60
2023-02-08T16:00:24.421Z,11.40
2023-02-08T16:03:02.932Z,11.20
2023-02-08T16:05:32.715Z,11.00
2023-02-08T16:08:02.105Z,10.80
2023-02-08T16:10:41.510Z,10.60
2023-02-08T16:13:35.232Z,10.50
2023-02-08T16:16:35.150Z,10.30
2023-02-08T16:19:50.467Z,10.20
2023-02-08T16:22:31.152Z,10.00
2023-02-08T16:25:36.404Z,9.90
2023-02-08T16:28:06.239Z,9.70
2023-02-08T16:30:34.196Z,9.60
2023-02-08T16:33:08.144Z,9.50
2023-02-08T16:35:40.106Z,9.30
2023-02-08T16:38:15.016Z,9.20
2023-02-08T16:40:54.921Z,9.10
2023-02-08T16:43:32.897Z,9.00
2023-02-08T16:46:22.490Z,8.90
2023-02-08T16:48:57.774Z,8.80
2023-02-08T16:51:33.306Z,8.70
2023-02-08T16:54:07.892Z,8.60
2023-02-08T16:56:37.328Z,8.50
2023-02-08T16:59:05.562Z,8.40
2023-02-08T17:01:33.883Z,8.30
2023-02-08T17:04:01.661Z,8.20
2023-02-08T17:06:32.242Z,8.20
2023-02-08T17:09:01.481Z,8.10
2023-02-08T17:11:30.907Z,8.00
2023-02-08T17:14:01.374Z,7.90
2023-02-08T17:16:38.022Z,7.80
2023-02-08T17:19:05.759Z,7.70
2023-02-08T17:21:33.285Z,7.60
2023-02-08T17:24:04.622Z,7.60
2023-02-08T17:26:43.714Z,7.50
2023-02-08T17:29:13.112Z,7.40
2023-02-08T17:31:41.615Z,7.30
2023-02-08T17:34:12.185Z,7.20
2023-02-08T17:36:42.704Z,7.10
2023-02-08T17:39:11.335Z,7.10
2023-02-08T17:41:42.336Z,7.00
2023-02-08T17:44:13.091Z,7.00
2023-02-08T17:46:40.461Z,6.90
2023-02-08T17:49:07.745Z,6.90
2023-02-08T17:51:35.116Z,6.80
2023-02-08T17:54:11.288Z,6.80
2023-02-08T17:56:38.578Z,6.80
2023-02-08T17:59:08.697Z,6.80
2023-02-08T18:01:36.083Z,6.70
2023-02-08T18:04:03.561Z,6.70
2023-02-08T18:06:31.386Z,6.70
2023-02-08T18:08:58.752Z,6.60
2023-02-08T18:11:26.163Z,6.60
2023-02-08T18:13:54.972Z,6.60
2023-02-08T18:16:27.779Z,6.50
2023-02-08T18:18:57.549Z,6.50
2023-02-08T18:21:26.600Z,6.40
2023-02-08T18:23:56.463Z,6.30
2023-02-08T18:26:25.576Z,6.30
2023-02-08T18:28:56.071Z,6.20
2023-02-08T18:31:25.455Z,6.10
2023-02-08T18:33:53.391Z,6.00
2023-02-08T18:36:23.244Z,5.90
2023-02-08T18:38:55.753Z,5.70
2023-02-08T18:41:29.233Z,5.60
2023-02-08T18:43:59.172Z,5.50
2023-02-08T18:46:28.602Z,5.50
2023-02-08T18:48:56.617Z,5.40
2023-02-08T18:51:26.802Z,5.40
2023-02-08T18:53:56.252Z,5.40
2023-02-08T18:56:26.385Z,5.30
2023-02-08T18:58:55.528Z,5.30
2023-02-08T19:01:24.967Z,5.30
2023-02-08T19:03:53.482Z,5.30
2023-02-08T19:06:25.012Z,5.20
2023-02-08T19:08:56.083Z,5.20
2023-02-08T19:11:28.492Z,5.20
2023-02-08T19:13:59.034Z,5.20
2023-02-08T19:16:30.098Z,5.20
2023-02-08T19:18:58.459Z,5.20
2023-02-08T19:21:26.952Z,5.10
2023-02-08T19:23:55.177Z,5.10
2023-02-08T19:26:34.208Z,5.10
2023-02-08T19:29:06.929Z,5.10
2023-02-08T19:31:35.997Z,5.10
2023-02-08T19:34:09.723Z,5.10
2023-02-08T19:36:42.676Z,5.10
2023-02-08T19:39:15.114Z,5.10
2023-02-08T19:41:43.478Z,5.00
2023-02-08T19:44:15.266Z,5.00
2023-02-08T19:46:47.170Z,5.00
2023-02-08T19:49:15.299Z,5.00
2023-02-08T19:51:43.350Z,5.00
2023-02-08T19:54:16.436Z,5.00
2023-02-08T19:56:44.765Z,5.00
2023-02-08T19:59:28.576Z,5.00
2023-02-08T20:01:56.400Z,5.00
2023-02-08T20:04:25.497Z,5.00
2023-02-08T20:06:54.048Z,5.00
2023-02-08T20:09:24.792Z,4.90
2023-02-08T20:11:57.699Z,4.90
2023-02-08T20:14:33.108Z,5.00
2023-02-08T20:17:03.389Z,4.90
2023-02-08T20:19:31.930Z,4.90
2023-02-08T20:22:02.043Z,5.00
2023-02-08T20:24:32.843Z,4.90
2023-02-08T20:27:01.442Z,5.00
2023-02-08T20:29:33.191Z,5.00
2023-02-08T20:32:04.981Z,5.00
2023-02-08T20:34:38.144Z,5.00
2023-02-08T20:37:10.223Z,5.00
2023-02-08T20:39:53.631Z,5.00
2023-02-08T20:42:37.645Z,5.00
2023-02-08T20:47:52.930Z,5.00
2023-02-08T20:50:27.620Z,5.00
2023-02-08T20:53:02.511Z,5.10
2023-02-08T20:55:45.917Z,5.10
2023-02-08T20:59:17.034Z,5.10
2023-02-08T21:02:25.076Z,5.20
2023-02-08T21:05:15.985Z,5.20
2023-02-08T21:08:09.399Z,5.20
2023-02-08T21:13:40.891Z,5.20
2023-02-08T21:16:10.979Z,5.20
2023-02-08T21:18:40.480Z,5.20
2023-02-08T21:21:11.710Z,5.20
2023-02-08T21:23:45.585Z,5.20
2023-02-08T21:26:20.786Z,5.20
2023-02-08T21:28:52.192Z,5.10
2023-02-08T21:31:31.336Z,5.10
2023-02-08T21:34:04.391Z,5.10
2023-02-08T21:36:32.776Z,5.00
2023-02-08T21:39:01.116Z,5.00
2023-02-08T21:41:31.941Z,4.90
2023-02-08T21:44:03.579Z,4.90
2023-02-08T21:46:32.524Z,4.80
2023-02-08T21:49:19.083Z,4.80
2023-02-08T21:52:08.053Z,4.70
2023-02-08T21:54:41.858Z,4.60
2023-02-08T21:57:19.241Z,4.60
2023-02-08T21:59:53.158Z,4.50
2023-02-08T22:02:29.878Z,4.40
2023-02-08T22:05:02.870Z,4.40
2023-02-08T22:07:42.691Z,4.30
2023-02-08T22:10:13.220Z,4.30
2023-02-08T22:12:42.615Z,4.20
2023-02-08T22:15:17.082Z,4.20
2023-02-08T22:17:45.254Z,4.10
2023-02-08T22:20:16.101Z,4.10
2023-02-08T22:22:44.034Z,4.10
2023-02-08T22:25:14.163Z,4.00
2023-02-08T22:27:41.683Z,4.00
2023-02-08T22:30:12.547Z,3.90
2023-02-08T22:32:42.299Z,3.90
2023-02-08T22:35:11.051Z,3.90
2023-02-08T22:37:39.480Z,3.80
2023-02-08T22:40:08.984Z,3.80
2023-02-08T22:42:36.453Z,3.80
2023-02-08T22:45:04.222Z,3.70
2023-02-08T22:47:33.017Z,3.70
2023-02-08T22:50:01.316Z,3.70
2023-02-08T22:52:28.817Z,3.70
2023-02-08T22:54:56.620Z,3.70
2023-02-08T22:57:24.109Z,3.70
2023-02-08T22:59:51.688Z,3.70
2023-02-08T23:02:19.053Z,3.70
2023-02-08T23:04:46.383Z,3.70
2023-02-08T23:07:13.707Z,3.60
2023-02-08T23:09:41.124Z,3.60
2023-02-08T23:12:08.720Z,3.60
2023-02-08T23:14:36.367Z,3.60
2023-02-08T23:17:04.054Z,3.60
2023-02-08T23:19:31.439Z,3.60
2023-02-08T23:22:01.653Z,3.60
2023-02-08T23:24:29.883Z,3.60
2023-02-08T23:26:57.227Z,3.50
2023-02-08T23:29:25.775Z,3.50
2023-02-08T23:31:53.271Z,3.50
2023-02-08T23:34:20.854Z,3.50
2023-02-08T23:36:48.362Z,3.40
2023-02-08T23:39:15.849Z,3.40
2023-02-08T23:41:43.370Z,3.40
2023-02-08T23:44:10.666Z,3.40
2023-02-08T23:46:38.222Z,3.40
2023-02-08T23:49:05.826Z,3.30
2023-02-08T23:51:33.285Z,3.30
2023-02-08T23:54:00.981Z,3.30
2023-02-08T23:56:32.262Z,3.20
2023-02-08T23:59:00.512Z,3.20
